createdAt,value
2019-02-06T00:00:56.643Z,23.03
2019-02-06T00:03:26.370Z,23.23
2019-02-06T00:05:55.830Z,24.53
2019-02-06T00:08:25.109Z,24.37
2019-02-06T00:10:54.585Z,23.83
2019-02-06T00:13:23.866Z,24.80
2019-02-06T00:15:53.730Z,23.30
2019-02-06T00:18:23.149Z,26.33
2019-02-06T00:20:52.532Z,26.13
2019-02-06T00:23:21.790Z,24.87
2019-02-06T00:25:51.364Z,25.93
2019-02-06T00:28:20.734Z,23.73
2019-02-06T00:30:50.418Z,23.50
2019-02-06T00:33:19.696Z,23.87
2019-02-06T00:36:08.062Z,27.30
2019-02-06T00:38:37.334Z,26.73
2019-02-06T00:41:06.898Z,24.13
2019-02-06T00:43:36.178Z,27.13
2019-02-06T00:46:05.773Z,26.90
2019-02-06T00:48:35.037Z,27.77
2019-02-06T00:51:04.371Z,27.47
2019-02-06T00:53:33.680Z,29.20
2019-02-06T00:56:03.333Z,28.67
2019-02-06T00:58:51.698Z,27.87
2019-02-06T01:01:21.188Z,27.80
2019-02-06T01:03:50.464Z,29.40
2019-02-06T01:06:19.835Z,26.33
2019-02-06T01:08:49.104Z,28.67
2019-02-06T01:11:18.474Z,26.57
2019-02-06T01:13:47.742Z,27.77
2019-02-06T01:16:17.042Z,29.40
2019-02-06T01:18:46.309Z,30.43
2019-02-06T01:21:15.594Z,26.20
2019-02-06T01:23:45.149Z,29.17
2019-02-06T01:26:14.418Z,29.13
2019-02-06T01:28:43.757Z,29.27
2019-02-06T01:31:17.510Z,26.70
2019-02-06T01:33:46.863Z,28.93
2019-02-06T01:36:16.149Z,27.63
2019-02-06T01:38:45.716Z,28.13
2019-02-06T01:41:15.062Z,29.20
2019-02-06T01:43:44.346Z,27.80
2019-02-06T01:46:13.678Z,29.90
2019-02-06T01:48:43.053Z,27.27
2019-02-06T01:51:12.303Z,28.50
2019-02-06T01:53:42.068Z,28.63
2019-02-06T01:56:11.423Z,29.83
2019-02-06T01:58:40.701Z,29.00
2019-02-06T02:01:10.281Z,28.50
2019-02-06T02:03:39.660Z,28.60
2019-02-06T02:06:08.959Z,29.43
2019-02-06T02:08:42.125Z,30.13
2019-02-06T02:11:11.448Z,30.67
2019-02-06T02:13:40.820Z,32.83
2019-02-06T02:16:10.085Z,31.43
2019-02-06T02:18:39.394Z,27.97
2019-02-06T02:21:08.805Z,28.80
2019-02-06T02:23:38.669Z,28.90
2019-02-06T02:26:07.926Z,29.57
2019-02-06T02:28:37.285Z,28.60
2019-02-06T02:31:06.845Z,29.43
2019-02-06T02:33:36.169Z,29.43
2019-02-06T02:36:15.168Z,32.23
2019-02-06T02:38:36.397Z,29.30
2019-02-06T02:41:05.780Z,31.50
2019-02-06T02:43:35.059Z,33.97
2019-02-06T02:46:04.604Z,31.90
2019-02-06T02:48:33.987Z,31.73
2019-02-06T02:51:03.336Z,29.10
2019-02-06T02:53:32.933Z,33.17
2019-02-06T02:56:02.264Z,32.80
2019-02-06T02:58:31.568Z,32.67
2019-02-06T03:01:19.866Z,33.43
2019-02-06T03:04:02.294Z,31.17
2019-02-06T03:06:31.600Z,31.03
2019-02-06T03:09:00.873Z,32.20
2019-02-06T03:11:30.133Z,34.00
2019-02-06T03:13:59.413Z,32.23
2019-02-06T03:16:29.179Z,33.30
2019-02-06T03:18:58.442Z,31.40
2019-02-06T03:21:27.716Z,32.53
2019-02-06T03:23:56.993Z,32.33
2019-02-06T03:26:26.269Z,31.90
2019-02-06T03:28:55.541Z,34.87
2019-02-06T03:31:24.811Z,34.83
2019-02-06T03:33:54.115Z,35.63
2019-02-06T03:36:23.371Z,35.53
2019-02-06T03:38:52.667Z,33.93
2019-02-06T03:41:21.931Z,34.53
2019-02-06T03:43:51.219Z,34.67
2019-02-06T03:46:20.480Z,36.10
2019-02-06T03:48:49.765Z,31.73
2019-02-06T03:51:19.021Z,32.93
2019-02-06T03:53:48.377Z,32.57
2019-02-06T03:56:17.623Z,32.23
2019-02-06T03:58:47.000Z,32.43
2019-02-06T04:01:16.588Z,31.87
2019-02-06T04:03:46.157Z,32.60
2019-02-06T04:06:15.469Z,33.50
2019-02-06T04:08:44.731Z,28.70
2019-02-06T04:11:14.020Z,31.30
2019-02-06T04:13:43.276Z,35.60
2019-02-06T04:16:12.598Z,34.20
2019-02-06T04:18:42.173Z,35.30
2019-02-06T04:21:11.634Z,35.17
2019-02-06T04:23:40.930Z,30.23
2019-02-06T04:26:10.205Z,32.70
2019-02-06T04:28:39.560Z,36.37
2019-02-06T04:31:08.813Z,36.00
2019-02-06T04:33:38.279Z,34.73
2019-02-06T04:36:07.548Z,33.27
2019-02-06T04:38:36.797Z,36.40
2019-02-06T04:41:06.162Z,31.60
2019-02-06T04:43:35.437Z,34.57
2019-02-06T04:46:04.721Z,24.77
2019-02-06T04:48:34.364Z,36.80
2019-02-06T04:51:03.740Z,20.83
2019-02-06T04:53:32.997Z,30.63
2019-02-06T04:56:02.306Z,35.60
2019-02-06T04:58:31.573Z,35.33
2019-02-06T05:01:00.933Z,32.30
2019-02-06T05:03:30.205Z,33.07
2019-02-06T05:05:59.494Z,35.47
2019-02-06T05:08:28.802Z,33.63
2019-02-06T05:10:58.066Z,34.97
2019-02-06T05:13:27.371Z,34.90
2019-02-06T05:15:56.706Z,33.60
2019-02-06T05:18:26.907Z,33.90
2019-02-06T05:20:56.198Z,35.97
2019-02-06T05:23:25.460Z,34.90
2019-02-06T05:25:55.901Z,34.43
2019-02-06T05:28:25.252Z,32.27
2019-02-06T05:30:54.569Z,34.33
2019-02-06T05:33:23.976Z,34.78
2019-02-06T05:35:53.245Z,36.50
2019-02-06T05:38:22.500Z,34.53
2019-02-06T05:40:51.790Z,34.63
2019-02-06T05:43:21.057Z,34.00
2019-02-06T05:45:50.351Z,33.47
2019-02-06T05:48:19.723Z,33.33
2019-02-06T05:50:49.334Z,35.07
2019-02-06T05:53:18.597Z,32.33
2019-02-06T05:55:48.040Z,35.43
2019-02-06T05:58:17.336Z,33.50
2019-02-06T06:00:48.779Z,33.37
2019-02-06T06:03:18.240Z,34.00
2019-02-06T06:05:47.696Z,36.40
2019-02-06T06:08:16.977Z,33.10
2019-02-06T06:10:46.336Z,34.83
2019-02-06T06:13:18.438Z,34.23
2019-02-06T06:15:46.533Z,35.77
2019-02-06T06:18:15.799Z,36.93
2019-02-06T06:20:45.085Z,33.77
2019-02-06T06:23:14.349Z,32.93
2019-02-06T06:25:43.615Z,32.33
2019-02-06T06:28:12.918Z,30.40
2019-02-06T06:30:42.231Z,29.57
2019-02-06T06:33:11.594Z,30.70
2019-02-06T06:35:40.938Z,31.40
2019-02-06T06:38:10.646Z,30.93
2019-02-06T06:40:40.011Z,33.30
2019-02-06T06:43:09.322Z,33.23
2019-02-06T06:45:38.577Z,31.27
2019-02-06T06:48:07.859Z,32.27
2019-02-06T06:50:37.126Z,31.87
2019-02-06T06:53:06.816Z,33.53
2019-02-06T06:55:36.188Z,31.73
2019-02-06T06:58:05.725Z,28.93
2019-02-06T07:00:35.232Z,28.20
2019-02-06T07:03:04.513Z,27.00
2019-02-06T07:05:33.801Z,30.57
2019-02-06T07:08:11.176Z,25.20
2019-02-06T07:10:34.619Z,32.97
2019-02-06T07:13:03.892Z,25.83
2019-02-06T07:15:34.794Z,30.30
2019-02-06T07:18:10.852Z,27.42
2019-02-06T07:20:40.321Z,27.17
2019-02-06T07:23:09.773Z,25.13
2019-02-06T07:25:39.245Z,21.17
2019-02-06T07:28:08.782Z,19.80
2019-02-06T07:30:38.226Z,26.17
2019-02-06T07:33:07.524Z,24.20
2019-02-06T07:35:36.944Z,28.50
2019-02-06T07:38:06.366Z,26.63
2019-02-06T07:40:35.678Z,26.13
2019-02-06T07:43:04.943Z,30.33
2019-02-06T07:45:34.317Z,26.63
2019-02-06T07:48:03.575Z,26.30
2019-02-06T07:50:33.993Z,27.73
2019-02-06T07:53:03.416Z,27.70
2019-02-06T07:55:32.780Z,27.87
2019-02-06T07:58:02.166Z,29.70
2019-02-06T08:00:31.635Z,22.63
2019-02-06T08:03:01.204Z,30.63
2019-02-06T08:05:30.677Z,30.63
2019-02-06T08:08:00.308Z,28.93
2019-02-06T08:10:31.507Z,28.50
2019-02-06T08:13:02.810Z,30.40
2019-02-06T08:15:32.389Z,27.43
2019-02-06T08:18:01.665Z,28.53
2019-02-06T08:20:31.503Z,25.93
2019-02-06T08:23:00.966Z,26.23
2019-02-06T08:25:30.224Z,30.80
2019-02-06T08:27:59.695Z,25.77
2019-02-06T08:30:37.155Z,29.00
2019-02-06T08:33:06.701Z,26.47
2019-02-06T08:35:36.277Z,24.83
2019-02-06T08:38:07.233Z,26.27
2019-02-06T08:40:36.798Z,26.23
2019-02-06T08:43:06.076Z,25.23
2019-02-06T08:45:35.465Z,24.13
2019-02-06T08:48:05.189Z,24.90
2019-02-06T08:50:34.515Z,26.07
2019-02-06T08:53:03.791Z,25.17
2019-02-06T08:55:33.249Z,25.67
2019-02-06T08:58:02.749Z,28.60
2019-02-06T09:00:34.560Z,26.13
2019-02-06T09:03:05.666Z,21.40
2019-02-06T09:05:35.026Z,16.20
2019-02-06T09:08:04.769Z,21.43
2019-02-06T09:10:34.106Z,23.17
2019-02-06T09:13:03.575Z,24.83
2019-02-06T09:15:32.840Z,26.17
2019-02-06T09:18:02.131Z,25.87
2019-02-06T09:20:31.549Z,23.03
2019-02-06T09:23:00.924Z,22.50
2019-02-06T09:25:30.509Z,19.77
2019-02-06T09:27:59.992Z,21.70
2019-02-06T09:30:30.936Z,20.70
2019-02-06T09:33:00.529Z,21.57
2019-02-06T09:35:29.905Z,22.93
2019-02-06T09:37:59.390Z,23.50
2019-02-06T09:40:29.897Z,23.80
2019-02-06T09:42:59.254Z,23.70
2019-02-06T09:45:28.755Z,24.00
2019-02-06T09:47:58.137Z,20.70
2019-02-06T09:50:29.980Z,23.43
2019-02-06T09:52:59.242Z,21.97
2019-02-06T09:55:28.636Z,21.90
2019-02-06T09:57:57.931Z,22.40
2019-02-06T10:00:29.449Z,22.90
2019-02-06T10:02:59.038Z,23.47
2019-02-06T10:05:28.350Z,24.67
2019-02-06T10:07:57.860Z,23.23
2019-02-06T10:10:27.542Z,24.07
2019-02-06T10:12:57.054Z,23.87
2019-02-06T10:15:28.320Z,22.35
2019-02-06T10:17:59.953Z,21.20
2019-02-06T10:20:33.539Z,23.13
2019-02-06T10:23:03.306Z,21.00
2019-02-06T10:25:32.681Z,21.90
2019-02-06T10:28:01.950Z,22.37
2019-02-06T10:30:33.682Z,22.47
2019-02-06T10:33:03.184Z,16.57
2019-02-06T10:35:32.483Z,24.50
2019-02-06T10:38:01.819Z,21.77
2019-02-06T10:40:31.407Z,19.17
2019-02-06T10:43:00.978Z,21.50
2019-02-06T10:45:30.259Z,26.43
2019-02-06T10:47:59.717Z,24.40
2019-02-06T10:50:31.774Z,25.10
2019-02-06T10:53:01.213Z,27.23
2019-02-06T10:55:30.658Z,22.10
2019-02-06T10:58:00.076Z,21.10
2019-02-06T11:00:35.266Z,20.87
2019-02-06T11:03:05.002Z,22.03
2019-02-06T11:05:34.375Z,19.53
2019-02-06T11:08:03.636Z,13.37
2019-02-06T11:10:32.956Z,16.33
2019-02-06T11:13:02.506Z,14.80
2019-02-06T11:15:32.273Z,14.97
2019-02-06T11:18:01.630Z,12.77
2019-02-06T11:20:31.832Z,13.80
2019-02-06T11:23:01.124Z,15.70
2019-02-06T11:25:30.429Z,16.93
2019-02-06T11:27:59.691Z,16.67
2019-02-06T11:30:31.089Z,12.60
2019-02-06T11:33:00.376Z,16.20
2019-02-06T11:35:29.688Z,22.43
2019-02-06T11:37:59.434Z,21.70
2019-02-06T11:40:30.740Z,16.27
2019-02-06T11:42:59.981Z,18.43
2019-02-06T11:45:31.715Z,18.17
2019-02-06T11:48:00.988Z,19.63
2019-02-06T11:50:37.334Z,16.83
2019-02-06T11:53:08.135Z,18.10
2019-02-06T11:55:37.436Z,14.13
2019-02-06T11:58:07.418Z,17.43
2019-02-06T12:00:48.308Z,15.30
2019-02-06T12:03:16.187Z,15.97
2019-02-06T12:05:45.556Z,14.30
2019-02-06T12:08:15.033Z,17.23
2019-02-06T12:10:44.541Z,17.33
2019-02-06T12:13:13.934Z,18.40
2019-02-06T12:15:43.423Z,19.80
2019-02-06T12:18:12.679Z,16.83
2019-02-06T12:20:41.977Z,16.80
2019-02-06T12:23:11.247Z,18.47
2019-02-06T12:25:40.520Z,16.30
2019-02-06T12:28:10.016Z,15.87
2019-02-06T12:30:39.443Z,16.27
2019-02-06T12:33:08.752Z,16.90
2019-02-06T12:35:38.026Z,12.43
2019-02-06T12:38:07.614Z,14.97
2019-02-06T12:40:36.910Z,18.93
2019-02-06T12:43:07.113Z,16.67
2019-02-06T12:45:38.095Z,13.93
2019-02-06T12:48:08.123Z,14.53
2019-02-06T12:50:38.039Z,17.03
2019-02-06T12:53:07.498Z,17.47
2019-02-06T12:55:38.120Z,16.73
2019-02-06T12:58:08.321Z,17.33
2019-02-06T13:00:39.648Z,16.43
2019-02-06T13:03:09.108Z,15.50
2019-02-06T13:05:38.528Z,14.27
2019-02-06T13:08:08.472Z,14.17
2019-02-06T13:10:37.807Z,11.37
2019-02-06T13:13:07.316Z,13.77
2019-02-06T13:15:36.997Z,14.13
2019-02-06T13:18:06.481Z,14.00
2019-02-06T13:20:35.961Z,12.87
2019-02-06T13:23:05.745Z,10.77
2019-02-06T13:25:34.993Z,12.93
2019-02-06T13:28:04.993Z,12.87
2019-02-06T13:30:36.610Z,14.60
2019-02-06T13:33:07.196Z,12.73
2019-02-06T13:35:36.760Z,13.23
2019-02-06T13:38:06.408Z,10.10
2019-02-06T13:40:45.282Z,12.53
2019-02-06T13:43:07.048Z,12.50
2019-02-06T13:45:42.202Z,12.60
2019-02-06T13:48:11.579Z,12.83
2019-02-06T13:50:41.503Z,11.87
2019-02-06T13:53:10.863Z,11.97
2019-02-06T13:55:40.177Z,12.03
2019-02-06T13:58:19.689Z,11.00
2019-02-06T14:00:41.149Z,12.10
2019-02-06T14:03:10.433Z,12.30
2019-02-06T14:05:41.524Z,15.13
2019-02-06T14:08:12.850Z,11.80
2019-02-06T14:10:42.217Z,11.67
2019-02-06T14:13:11.588Z,10.60
2019-02-06T14:15:42.617Z,10.70
2019-02-06T14:18:12.383Z,12.20
2019-02-06T14:20:41.689Z,12.30
2019-02-06T14:23:13.896Z,11.07
2019-02-06T14:26:00.645Z,12.17
2019-02-06T14:29:01.517Z,9.23
2019-02-06T14:31:56.158Z,11.80
2019-02-06T14:34:58.309Z,11.80
2019-02-06T14:37:58.600Z,11.20
2019-02-06T14:41:08.569Z,10.07
2019-02-06T14:44:06.973Z,9.73
2019-02-06T14:47:16.177Z,12.03
2019-02-06T14:50:05.550Z,7.53
2019-02-06T14:53:07.319Z,12.93
2019-02-06T14:56:23.981Z,9.87
2019-02-06T14:59:30.787Z,10.93
2019-02-06T15:02:56.791Z,12.97
2019-02-06T15:06:10.376Z,12.63
2019-02-06T15:09:17.858Z,13.47
2019-02-06T15:12:19.127Z,13.37
2019-02-06T15:15:15.566Z,14.00
2019-02-06T15:18:17.757Z,12.50
2019-02-06T15:21:10.706Z,12.07
2019-02-06T15:24:22.011Z,12.83
2019-02-06T15:27:33.868Z,12.53
2019-02-06T15:30:20.215Z,13.87
2019-02-06T15:33:30.928Z,12.10
2019-02-06T15:36:31.250Z,14.57
2019-02-06T15:39:44.234Z,13.70
2019-02-06T15:42:49.786Z,11.90
2019-02-06T15:45:35.217Z,13.60
2019-02-06T15:48:28.863Z,13.20
2019-02-06T15:51:51.292Z,13.17
2019-02-06T15:54:48.545Z,13.40
2019-02-06T15:58:11.684Z,15.27
2019-02-06T16:01:14.721Z,14.67
2019-02-06T16:04:22.812Z,11.33
2019-02-06T16:07:48.575Z,12.67
2019-02-06T16:10:52.115Z,14.40
2019-02-06T16:13:58.131Z,14.47
2019-02-06T16:17:03.581Z,14.37
2019-02-06T16:19:47.144Z,14.23
2019-02-06T16:22:38.782Z,13.50
2019-02-06T16:25:42.893Z,16.23
2019-02-06T16:28:55.621Z,13.77
2019-02-06T16:32:07.762Z,15.10
2019-02-06T16:35:33.034Z,12.90
2019-02-06T16:38:15.445Z,16.07
2019-02-06T16:41:28.288Z,17.73
2019-02-06T16:44:38.943Z,16.47
2019-02-06T16:47:52.222Z,19.77
2019-02-06T16:50:42.562Z,15.97
2019-02-06T16:53:51.642Z,14.77
2019-02-06T16:56:33.624Z,16.60
2019-02-06T16:59:20.101Z,15.30
2019-02-06T17:02:26.535Z,18.07
2019-02-06T17:05:51.536Z,18.30
2019-02-06T17:09:23.176Z,18.83
2019-02-06T17:12:22.464Z,15.97
2019-02-06T17:15:20.638Z,15.33
2019-02-06T17:18:32.997Z,15.17
2019-02-06T17:21:43.322Z,15.83
2019-02-06T17:24:36.391Z,16.07
2019-02-06T17:27:47.544Z,13.50
2019-02-06T17:31:02.447Z,16.57
2019-02-06T17:34:00.212Z,15.03
2019-02-06T17:36:55.843Z,15.40
2019-02-06T17:39:45.393Z,15.17
2019-02-06T17:42:54.646Z,15.37
2019-02-06T17:45:58.266Z,14.63
2019-02-06T17:48:56.272Z,13.90
2019-02-06T17:52:09.531Z,17.80
2019-02-06T17:55:15.428Z,16.43
2019-02-06T17:57:45.178Z,15.47
2019-02-06T18:00:29.604Z,15.10
2019-02-06T18:02:59.852Z,15.57
2019-02-06T18:05:29.850Z,15.70
2019-02-06T18:07:59.221Z,16.30
2019-02-06T18:10:28.498Z,18.83
2019-02-06T18:12:57.777Z,17.70
2019-02-06T18:15:27.354Z,17.23
2019-02-06T18:17:59.569Z,17.00
2019-02-06T18:20:28.945Z,22.13
2019-02-06T18:23:06.825Z,22.03
2019-02-06T18:25:36.072Z,24.13
2019-02-06T18:28:05.839Z,16.17
2019-02-06T18:30:35.310Z,21.83
2019-02-06T18:33:06.141Z,19.23
2019-02-06T18:35:35.615Z,23.73
2019-02-06T18:38:07.212Z,18.23
2019-02-06T18:40:36.715Z,18.70
2019-02-06T18:43:06.372Z,15.90
2019-02-06T18:45:35.652Z,17.73
2019-02-06T18:48:08.585Z,17.97
2019-02-06T18:50:38.844Z,48.20
2019-02-06T18:53:08.493Z,21.10
2019-02-06T18:55:38.343Z,22.70
2019-02-06T18:58:08.625Z,44.97
2019-02-06T19:00:38.582Z,26.73
2019-02-06T19:03:12.354Z,20.13
2019-02-06T19:05:42.740Z,17.33
2019-02-06T19:08:12.331Z,27.60
2019-02-06T19:10:41.773Z,18.03
2019-02-06T19:13:11.492Z,21.13
2019-02-06T19:15:41.092Z,25.93
2019-02-06T19:18:11.719Z,19.77
2019-02-06T19:20:41.272Z,39.70
2019-02-06T19:23:10.818Z,20.67
2019-02-06T19:25:40.483Z,19.43
2019-02-06T19:28:10.179Z,28.40
2019-02-06T19:30:40.375Z,35.57
2019-02-06T19:33:10.430Z,24.37
2019-02-06T19:35:39.926Z,61.13
2019-02-06T19:38:12.393Z,23.73
2019-02-06T19:40:44.310Z,18.87
2019-02-06T19:43:14.945Z,20.70
2019-02-06T19:45:44.703Z,26.03
2019-02-06T19:48:17.686Z,28.80
2019-02-06T19:50:45.524Z,18.90
2019-02-06T19:53:15.052Z,19.00
2019-02-06T19:55:44.494Z,25.57
2019-02-06T19:58:14.134Z,38.77
2019-02-06T20:00:43.949Z,37.43
2019-02-06T20:03:13.670Z,25.70
2019-02-06T20:05:43.265Z,15.33
2019-02-06T20:08:14.307Z,49.03
2019-02-06T20:10:45.563Z,21.80
2019-02-06T20:13:15.018Z,18.93
2019-02-06T20:15:44.480Z,22.27
2019-02-06T20:18:14.538Z,13.83
2019-02-06T20:20:45.166Z,18.23
2019-02-06T20:23:14.877Z,19.70
2019-02-06T20:25:44.520Z,14.57
2019-02-06T20:28:13.972Z,15.67
2019-02-06T20:30:43.315Z,27.17
2019-02-06T20:33:12.820Z,14.40
2019-02-06T20:35:42.165Z,19.43
2019-02-06T20:38:11.584Z,17.17
2019-02-06T20:40:41.152Z,16.97
2019-02-06T20:43:21.415Z,13.37
2019-02-06T20:45:41.960Z,13.40
2019-02-06T20:48:13.241Z,23.30
2019-02-06T20:50:42.818Z,12.93
2019-02-06T20:53:12.262Z,13.40
2019-02-06T20:55:41.763Z,14.43
2019-02-06T20:58:12.757Z,14.97
2019-02-06T21:00:42.409Z,15.60
2019-02-06T21:03:11.963Z,14.63
2019-02-06T21:05:41.639Z,16.70
2019-02-06T21:08:11.184Z,14.00
2019-02-06T21:10:40.563Z,16.60
2019-02-06T21:13:10.086Z,16.23
2019-02-06T21:15:39.471Z,14.87
2019-02-06T21:18:08.964Z,14.63
2019-02-06T21:20:38.626Z,17.93
2019-02-06T21:23:08.119Z,24.30
2019-02-06T21:25:37.612Z,20.13
2019-02-06T21:28:07.111Z,22.93
2019-02-06T21:30:37.151Z,16.77
2019-02-06T21:33:06.872Z,18.63
2019-02-06T21:35:36.350Z,21.27
2019-02-06T21:38:06.065Z,16.17
2019-02-06T21:40:36.067Z,32.70
2019-02-06T21:43:06.205Z,24.90
2019-02-06T21:45:35.540Z,36.43
2019-02-06T21:48:05.651Z,39.40
2019-02-06T21:50:34.909Z,23.83
2019-02-06T21:53:04.228Z,15.80
2019-02-06T21:55:33.485Z,13.50
2019-02-06T21:58:03.018Z,13.13
2019-02-06T22:00:37.803Z,13.40
2019-02-06T22:03:07.323Z,12.30
2019-02-06T22:05:37.954Z,12.87
2019-02-06T22:08:07.427Z,13.10
2019-02-06T22:10:36.780Z,12.10
2019-02-06T22:13:06.537Z,12.97
2019-02-06T22:15:35.895Z,13.63
2019-02-06T22:18:05.145Z,14.60
2019-02-06T22:20:34.520Z,13.07
2019-02-06T22:23:03.797Z,14.27
2019-02-06T22:25:33.107Z,14.50
2019-02-06T22:28:02.360Z,15.40
2019-02-06T22:30:31.630Z,14.50
2019-02-06T22:33:00.903Z,15.07
2019-02-06T22:35:30.163Z,15.20
2019-02-06T22:37:59.595Z,16.03
2019-02-06T22:40:28.875Z,14.33
2019-02-06T22:42:58.156Z,14.87
2019-02-06T22:45:28.558Z,14.95
2019-02-06T22:47:57.959Z,13.70
2019-02-06T22:50:28.472Z,13.70
2019-02-06T22:52:57.923Z,12.90
2019-02-06T22:55:27.402Z,13.30
2019-02-06T22:57:56.683Z,13.70
2019-02-06T23:01:03.934Z,11.93
2019-02-06T23:03:36.102Z,12.57
2019-02-06T23:06:06.670Z,13.13
2019-02-06T23:08:36.042Z,12.87
2019-02-06T23:11:05.695Z,12.50
2019-02-06T23:13:34.997Z,13.10
2019-02-06T23:16:04.990Z,13.27
2019-02-06T23:18:35.259Z,12.60
2019-02-06T23:21:06.282Z,12.33
2019-02-06T23:23:35.902Z,12.23
2019-02-06T23:26:05.455Z,12.57
2019-02-06T23:28:34.741Z,12.17
2019-02-06T23:31:04.049Z,13.00
2019-02-06T23:33:33.345Z,13.00
2019-02-06T23:36:02.598Z,13.40
2019-02-06T23:38:32.184Z,12.70
2019-02-06T23:41:01.461Z,12.73
2019-02-06T23:43:30.757Z,12.07
2019-02-06T23:46:00.001Z,13.63
2019-02-06T23:48:29.279Z,11.93
2019-02-06T23:50:58.639Z,13.20
2019-02-06T23:53:28.233Z,13.47
2019-02-06T23:55:57.481Z,11.80
2019-02-06T23:58:26.780Z,12.03
